createdAt,value
2022-10-26T00:00:50.858Z,100.00
2022-10-26T00:01:49.041Z,100.00
2022-10-26T00:02:45.990Z,100.00
2022-10-26T00:03:44.901Z,100.00
2022-10-26T00:04:41.677Z,100.00
2022-10-26T00:05:38.915Z,100.00
2022-10-26T00:06:35.679Z,100.00
2022-10-26T00:07:32.410Z,100.00
2022-10-26T00:08:29.136Z,100.00
2022-10-26T00:09:26.102Z,100.00
2022-10-26T00:10:22.861Z,100.00
2022-10-26T00:11:20.081Z,100.00
2022-10-26T00:12:16.776Z,100.00
2022-10-26T00:13:13.655Z,100.00
2022-10-26T00:14:10.368Z,100.00
2022-10-26T00:15:08.344Z,100.00
2022-10-26T00:16:14.533Z,100.00
2022-10-26T00:17:11.230Z,100.00
2022-10-26T00:18:08.266Z,100.00
2022-10-26T00:19:04.973Z,100.00
2022-10-26T00:20:02.406Z,100.00
2022-10-26T00:21:07.075Z,100.00
2022-10-26T00:22:04.329Z,100.00
2022-10-26T00:23:01.002Z,100.00
2022-10-26T00:23:59.784Z,100.00
2022-10-26T00:24:56.472Z,100.00
2022-10-26T00:25:56.854Z,100.00
2022-10-26T00:26:53.554Z,100.00
2022-10-26T00:27:50.552Z,100.00
2022-10-26T00:28:47.647Z,100.00
2022-10-26T00:29:44.315Z,100.00
2022-10-26T00:30:41.025Z,100.00
2022-10-26T00:31:38.119Z,100.00
2022-10-26T00:32:35.087Z,100.00
2022-10-26T00:33:32.816Z,100.00
2022-10-26T00:34:29.582Z,100.00
2022-10-26T00:35:44.580Z,100.00
2022-10-26T00:36:42.055Z,100.00
2022-10-26T00:37:38.753Z,100.00
2022-10-26T00:38:35.499Z,100.00
2022-10-26T00:39:32.250Z,100.00
2022-10-26T00:40:30.160Z,100.00
2022-10-26T00:41:31.449Z,100.00
2022-10-26T00:42:28.139Z,100.00
2022-10-26T00:43:24.827Z,100.00
2022-10-26T00:44:49.326Z,100.00
2022-10-26T00:45:47.265Z,100.00
2022-10-26T00:46:43.984Z,100.00
2022-10-26T00:47:47.413Z,100.00
2022-10-26T00:48:52.190Z,100.00
2022-10-26T00:49:54.303Z,100.00
2022-10-26T00:50:54.241Z,100.00
2022-10-26T00:51:53.385Z,100.00
2022-10-26T00:52:53.718Z,100.00
2022-10-26T00:53:52.653Z,100.00
2022-10-26T00:54:50.487Z,100.00
2022-10-26T00:55:51.072Z,100.00
2022-10-26T00:56:52.274Z,100.00
2022-10-26T00:57:54.163Z,100.00
2022-10-26T00:58:52.126Z,100.00
2022-10-26T00:59:54.277Z,100.00
2022-10-26T01:00:51.738Z,100.00
2022-10-26T01:01:49.520Z,100.00
2022-10-26T01:02:51.174Z,100.00
2022-10-26T01:03:49.393Z,100.00
2022-10-26T01:04:47.734Z,100.00
2022-10-26T01:05:47.765Z,100.00
2022-10-26T01:06:46.639Z,100.00
2022-10-26T01:07:45.819Z,100.00
2022-10-26T01:08:44.357Z,100.00
2022-10-26T01:09:41.795Z,100.00
2022-10-26T01:10:41.762Z,100.00
2022-10-26T01:11:38.569Z,100.00
2022-10-26T01:12:35.556Z,100.00
2022-10-26T01:13:36.062Z,100.00
2022-10-26T01:14:34.296Z,100.00
2022-10-26T01:15:57.796Z,100.00
2022-10-26T01:17:15.849Z,100.00
2022-10-26T01:18:34.495Z,100.00
2022-10-26T01:19:52.013Z,100.00
2022-10-26T01:20:57.491Z,100.00
2022-10-26T01:21:56.758Z,100.00
2022-10-26T01:23:18.642Z,100.00
2022-10-26T01:24:21.070Z,100.00
2022-10-26T01:25:35.334Z,100.00
2022-10-26T01:26:43.934Z,100.00
2022-10-26T01:27:49.216Z,100.00
2022-10-26T01:29:10.565Z,100.00
2022-10-26T01:30:29.075Z,100.00
2022-10-26T01:31:45.375Z,100.00
2022-10-26T01:32:45.153Z,100.00
2022-10-26T01:34:03.073Z,100.00
2022-10-26T01:35:28.010Z,100.00
2022-10-26T01:36:42.571Z,100.00
2022-10-26T01:37:47.867Z,100.00
2022-10-26T01:39:08.931Z,100.00
2022-10-26T01:40:21.442Z,100.00
2022-10-26T01:41:28.190Z,100.00
2022-10-26T01:42:28.389Z,100.00
2022-10-26T01:43:30.515Z,100.00
2022-10-26T01:44:49.717Z,100.00
2022-10-26T01:45:49.116Z,100.00
2022-10-26T01:46:51.776Z,100.00
2022-10-26T01:47:51.573Z,100.00
2022-10-26T01:48:55.447Z,100.00
2022-10-26T01:49:56.463Z,100.00
2022-10-26T01:50:57.533Z,100.00
2022-10-26T01:51:54.271Z,100.00
2022-10-26T01:52:51.072Z,100.00
2022-10-26T01:53:47.908Z,100.00
2022-10-26T01:54:44.594Z,100.00
2022-10-26T01:55:50.972Z,100.00
2022-10-26T01:56:53.274Z,100.00
2022-10-26T01:57:53.594Z,100.00
2022-10-26T01:59:15.620Z,100.00
2022-10-26T02:00:13.111Z,100.00
2022-10-26T02:01:36.100Z,100.00
2022-10-26T02:02:55.621Z,100.00
2022-10-26T02:04:48.931Z,100.00
2022-10-26T02:05:52.332Z,100.00
2022-10-26T02:06:54.815Z,100.00
2022-10-26T02:08:05.015Z,100.00
2022-10-26T02:09:18.753Z,100.00
2022-10-26T02:10:34.563Z,100.00
2022-10-26T02:11:42.810Z,100.00
2022-10-26T02:13:03.008Z,100.00
2022-10-26T02:14:22.637Z,100.00
2022-10-26T02:15:25.280Z,100.00
2022-10-26T02:16:30.156Z,100.00
2022-10-26T02:17:46.290Z,100.00
2022-10-26T02:18:51.901Z,100.00
2022-10-26T02:20:00.304Z,100.00
2022-10-26T02:21:05.547Z,100.00
2022-10-26T02:22:20.449Z,100.00
2022-10-26T02:23:21.485Z,100.00
2022-10-26T02:24:22.437Z,100.00
2022-10-26T02:25:25.961Z,100.00
2022-10-26T02:26:28.607Z,100.00
2022-10-26T02:27:34.852Z,100.00
2022-10-26T02:28:38.536Z,100.00
2022-10-26T02:29:39.001Z,100.00
2022-10-26T02:30:39.780Z,100.00
2022-10-26T02:31:39.850Z,100.00
2022-10-26T02:32:42.793Z,100.00
2022-10-26T02:34:53.777Z,100.00
2022-10-26T02:35:54.777Z,100.00
2022-10-26T02:36:57.270Z,100.00
2022-10-26T02:37:59.202Z,100.00
2022-10-26T02:38:59.707Z,100.00
2022-10-26T02:40:00.732Z,100.00
2022-10-26T02:40:58.297Z,100.00
2022-10-26T02:41:57.550Z,100.00
2022-10-26T02:43:00.744Z,100.00
2022-10-26T02:44:11.366Z,100.00
2022-10-26T02:45:14.929Z,100.00
2022-10-26T02:46:18.432Z,100.00
2022-10-26T02:47:16.845Z,100.00
2022-10-26T02:48:15.273Z,100.00
2022-10-26T02:49:12.018Z,100.00
2022-10-26T02:50:09.444Z,100.00
2022-10-26T02:51:17.320Z,100.00
2022-10-26T02:52:49.996Z,100.00
2022-10-26T02:53:56.455Z,100.00
2022-10-26T02:55:16.019Z,100.00
2022-10-26T02:56:22.519Z,100.00
2022-10-26T02:57:30.682Z,100.00
2022-10-26T02:58:36.791Z,100.00
2022-10-26T02:59:38.719Z,100.00
2022-10-26T03:00:35.762Z,100.00
2022-10-26T03:01:35.729Z,100.00
2022-10-26T03:02:32.499Z,100.00
2022-10-26T03:03:29.535Z,100.00
2022-10-26T03:04:35.154Z,100.00
2022-10-26T03:05:33.170Z,100.00
2022-10-26T03:06:29.891Z,100.00
2022-10-26T03:07:26.618Z,100.00
2022-10-26T03:08:23.848Z,100.00
2022-10-26T03:09:23.450Z,100.00
2022-10-26T03:10:22.989Z,100.00
2022-10-26T03:11:19.816Z,100.00
2022-10-26T03:12:16.821Z,100.00
2022-10-26T03:13:14.549Z,100.00
2022-10-26T03:14:11.265Z,100.00
2022-10-26T03:15:08.549Z,100.00
2022-10-26T03:16:05.396Z,100.00
2022-10-26T03:17:02.089Z,100.00
2022-10-26T03:17:58.774Z,100.00
2022-10-26T03:18:55.452Z,100.00
2022-10-26T03:19:52.213Z,100.00
2022-10-26T03:20:49.145Z,100.00
2022-10-26T03:21:45.867Z,100.00
2022-10-26T03:22:42.591Z,100.00
2022-10-26T03:23:39.346Z,100.00
2022-10-26T03:24:36.042Z,100.00
2022-10-26T03:25:32.705Z,100.00
2022-10-26T03:26:29.423Z,100.00
2022-10-26T03:27:27.051Z,100.00
2022-10-26T03:28:24.526Z,100.00
2022-10-26T03:29:21.269Z,100.00
2022-10-26T03:30:17.942Z,100.00
2022-10-26T03:31:14.726Z,100.00
2022-10-26T03:32:11.403Z,100.00
2022-10-26T03:33:08.091Z,100.00
2022-10-26T03:34:04.765Z,100.00
2022-10-26T03:35:01.515Z,100.00
2022-10-26T03:35:58.239Z,100.00
2022-10-26T03:36:54.898Z,100.00
2022-10-26T03:37:52.028Z,100.00
2022-10-26T03:38:49.001Z,100.00
2022-10-26T03:39:45.804Z,100.00
2022-10-26T03:40:42.569Z,100.00
2022-10-26T03:41:39.282Z,100.00
2022-10-26T03:42:39.772Z,100.00
2022-10-26T03:43:36.502Z,100.00
2022-10-26T03:44:33.178Z,100.00
2022-10-26T03:45:29.857Z,100.00
2022-10-26T03:46:26.552Z,100.00
2022-10-26T03:47:23.287Z,100.00
2022-10-26T03:48:20.001Z,100.00
2022-10-26T03:49:16.679Z,100.00
2022-10-26T03:50:16.206Z,100.00
2022-10-26T03:51:12.918Z,100.00
2022-10-26T03:52:09.656Z,100.00
2022-10-26T03:53:06.811Z,100.00
2022-10-26T03:54:03.753Z,100.00
2022-10-26T03:55:00.445Z,100.00
2022-10-26T03:55:57.138Z,100.00
2022-10-26T03:56:55.221Z,100.00
2022-10-26T03:57:52.162Z,100.00
2022-10-26T03:58:48.874Z,100.00
2022-10-26T03:59:45.559Z,100.00
2022-10-26T04:00:42.287Z,100.00
2022-10-26T04:01:40.178Z,100.00
2022-10-26T04:02:37.052Z,100.00
2022-10-26T04:03:33.792Z,100.00
2022-10-26T04:04:30.566Z,100.00
2022-10-26T04:05:29.410Z,100.00
2022-10-26T04:06:26.098Z,100.00
2022-10-26T04:07:22.824Z,100.00
2022-10-26T04:08:19.655Z,100.00
2022-10-26T04:09:16.356Z,100.00
2022-10-26T04:10:13.169Z,100.00
2022-10-26T04:11:10.111Z,100.00
2022-10-26T04:12:07.002Z,100.00
2022-10-26T04:13:03.912Z,100.00
2022-10-26T04:14:00.740Z,100.00
2022-10-26T04:15:01.035Z,100.00
2022-10-26T04:15:57.959Z,100.00
2022-10-26T04:16:54.655Z,100.00
2022-10-26T04:18:02.279Z,100.00
2022-10-26T04:18:58.987Z,100.00
2022-10-26T04:19:55.678Z,100.00
2022-10-26T04:20:52.375Z,100.00
2022-10-26T04:21:52.091Z,100.00
2022-10-26T04:22:48.832Z,100.00
2022-10-26T04:23:45.514Z,100.00
2022-10-26T04:24:42.199Z,100.00
2022-10-26T04:25:39.030Z,100.00
2022-10-26T04:26:35.712Z,100.00
2022-10-26T04:27:33.648Z,100.00
2022-10-26T04:28:30.336Z,100.00
2022-10-26T04:29:27.162Z,100.00
2022-10-26T04:30:24.731Z,100.00
2022-10-26T04:31:21.649Z,100.00
2022-10-26T04:32:18.371Z,100.00
2022-10-26T04:33:15.091Z,100.00
2022-10-26T04:34:12.755Z,100.00
2022-10-26T04:35:13.238Z,100.00
2022-10-26T04:36:12.352Z,100.00
2022-10-26T04:37:09.062Z,100.00
2022-10-26T04:38:07.086Z,100.00
2022-10-26T04:39:03.794Z,100.00
2022-10-26T04:40:00.577Z,100.00
2022-10-26T04:40:57.336Z,100.00
2022-10-26T04:41:54.865Z,100.00
2022-10-26T04:42:51.856Z,100.00
2022-10-26T04:43:48.856Z,100.00
2022-10-26T04:44:45.550Z,100.00
2022-10-26T04:45:42.246Z,100.00
2022-10-26T04:46:38.961Z,100.00
2022-10-26T04:47:35.672Z,100.00
2022-10-26T04:48:32.429Z,100.00
2022-10-26T04:49:29.180Z,100.00
2022-10-26T04:50:28.464Z,100.00
2022-10-26T04:51:26.994Z,100.00
2022-10-26T04:52:23.669Z,100.00
2022-10-26T04:53:20.375Z,100.00
2022-10-26T04:54:17.166Z,100.00
2022-10-26T04:55:13.947Z,100.00
2022-10-26T04:56:10.708Z,100.00
2022-10-26T04:57:07.420Z,100.00
2022-10-26T04:58:04.654Z,100.00
2022-10-26T04:59:01.473Z,100.00
2022-10-26T04:59:58.168Z,100.00
2022-10-26T05:00:55.481Z,100.00
2022-10-26T05:01:52.269Z,100.00
2022-10-26T05:02:49.050Z,100.00
2022-10-26T05:03:50.263Z,100.00
2022-10-26T05:04:47.598Z,100.00
2022-10-26T05:05:44.300Z,100.00
2022-10-26T05:06:41.133Z,100.00
2022-10-26T05:07:37.886Z,100.00
2022-10-26T05:08:34.591Z,100.00
2022-10-26T05:09:31.286Z,100.00
2022-10-26T05:10:28.869Z,100.00
2022-10-26T05:11:25.660Z,100.00
2022-10-26T05:12:22.532Z,100.00
2022-10-26T05:13:19.265Z,100.00
2022-10-26T05:14:16.089Z,100.00
2022-10-26T05:15:15.141Z,100.00
2022-10-26T05:16:11.828Z,100.00
2022-10-26T05:17:08.698Z,100.00
2022-10-26T05:18:06.095Z,100.00
2022-10-26T05:19:02.918Z,100.00
2022-10-26T05:20:00.572Z,100.00
2022-10-26T05:20:57.765Z,100.00
2022-10-26T05:21:54.482Z,100.00
2022-10-26T05:22:53.942Z,100.00
2022-10-26T05:23:53.822Z,100.00
2022-10-26T05:24:50.796Z,100.00
2022-10-26T05:25:48.910Z,100.00
2022-10-26T05:26:45.771Z,100.00
2022-10-26T05:27:42.471Z,100.00
2022-10-26T05:28:39.148Z,100.00
2022-10-26T05:29:35.897Z,100.00
2022-10-26T05:30:32.829Z,100.00
2022-10-26T05:31:29.507Z,100.00
2022-10-26T05:32:26.207Z,100.00
2022-10-26T05:33:22.975Z,100.00
2022-10-26T05:34:19.641Z,100.00
2022-10-26T05:35:16.319Z,100.00
2022-10-26T05:36:13.090Z,100.00
2022-10-26T05:37:09.760Z,100.00
2022-10-26T05:38:10.043Z,100.00
2022-10-26T05:39:06.879Z,100.00
2022-10-26T05:40:03.780Z,100.00
2022-10-26T05:41:01.665Z,100.00
2022-10-26T05:41:58.341Z,100.00
2022-10-26T05:43:03.472Z,100.00
2022-10-26T05:44:00.535Z,100.00
2022-10-26T05:44:57.279Z,100.00
2022-10-26T05:45:54.461Z,100.00
2022-10-26T05:46:51.240Z,100.00
2022-10-26T05:47:48.250Z,100.00
2022-10-26T05:48:45.178Z,100.00
2022-10-26T05:49:41.884Z,100.00
2022-10-26T05:50:38.627Z,100.00
2022-10-26T05:51:37.206Z,100.00
2022-10-26T05:52:45.750Z,100.00
2022-10-26T05:53:42.445Z,100.00
2022-10-26T05:54:39.126Z,100.00
2022-10-26T05:55:36.394Z,100.00
2022-10-26T05:56:39.766Z,100.00
2022-10-26T05:57:37.693Z,100.00
2022-10-26T05:58:34.712Z,100.00
2022-10-26T05:59:32.463Z,100.00
2022-10-26T06:00:30.300Z,100.00
2022-10-26T06:02:11.136Z,100.00
2022-10-26T06:03:38.570Z,100.00
2022-10-26T06:04:41.228Z,100.00
2022-10-26T06:05:46.698Z,100.00
2022-10-26T06:06:47.249Z,100.00
2022-10-26T06:07:44.242Z,100.00
2022-10-26T06:08:42.976Z,100.00
2022-10-26T06:09:41.386Z,100.00
2022-10-26T06:10:39.027Z,100.00
2022-10-26T06:11:36.080Z,100.00
2022-10-26T06:12:33.162Z,100.00
2022-10-26T06:13:30.410Z,100.00
2022-10-26T06:14:27.498Z,100.00
2022-10-26T06:15:24.483Z,100.00
2022-10-26T06:16:47.350Z,100.00
2022-10-26T06:17:57.243Z,100.00
2022-10-26T06:19:22.995Z,100.00
2022-10-26T06:20:55.946Z,100.00
2022-10-26T06:22:28.759Z,100.00
2022-10-26T06:23:54.072Z,100.00
2022-10-26T06:25:05.744Z,100.00
2022-10-26T06:26:27.106Z,100.00
2022-10-26T06:27:48.171Z,100.00
2022-10-26T06:28:47.276Z,100.00
2022-10-26T06:29:55.979Z,100.00
2022-10-26T06:30:52.879Z,100.00
2022-10-26T06:31:49.722Z,100.00
2022-10-26T06:32:47.271Z,100.00
2022-10-26T06:33:44.781Z,100.00
2022-10-26T06:34:48.809Z,100.00
2022-10-26T06:36:14.745Z,100.00
2022-10-26T06:37:13.219Z,100.00
2022-10-26T06:38:16.393Z,100.00
2022-10-26T06:39:16.626Z,100.00
2022-10-26T06:40:17.971Z,100.00
2022-10-26T06:41:16.340Z,100.00
2022-10-26T06:42:13.432Z,100.00
2022-10-26T06:43:21.346Z,100.00
2022-10-26T06:44:24.562Z,100.00
2022-10-26T06:45:21.777Z,100.00
2022-10-26T06:46:29.690Z,100.00
2022-10-26T06:47:42.473Z,100.00
2022-10-26T06:49:13.990Z,100.00
2022-10-26T06:50:22.513Z,100.00
2022-10-26T06:51:20.552Z,100.00
2022-10-26T06:52:41.496Z,100.00
2022-10-26T06:54:07.044Z,100.00
2022-10-26T06:55:05.304Z,100.00
2022-10-26T06:56:02.286Z,100.00
2022-10-26T06:56:59.387Z,100.00
2022-10-26T06:57:56.196Z,100.00
2022-10-26T06:58:56.287Z,100.00
2022-10-26T07:00:06.862Z,100.00
2022-10-26T07:01:03.853Z,100.00
2022-10-26T07:02:03.050Z,100.00
2022-10-26T07:03:03.039Z,100.00
2022-10-26T07:03:59.774Z,100.00
2022-10-26T07:04:56.483Z,100.00
2022-10-26T07:05:53.501Z,100.00
2022-10-26T07:06:50.322Z,100.00
2022-10-26T07:07:48.703Z,100.00
2022-10-26T07:08:45.625Z,100.00
2022-10-26T07:09:42.350Z,100.00
2022-10-26T07:10:39.486Z,100.00
2022-10-26T07:11:36.188Z,100.00
2022-10-26T07:12:33.280Z,100.00
2022-10-26T07:13:34.475Z,100.00
2022-10-26T07:14:31.252Z,100.00
2022-10-26T07:15:27.930Z,100.00
2022-10-26T07:16:24.747Z,100.00
2022-10-26T07:17:21.538Z,100.00
2022-10-26T07:18:18.322Z,100.00
2022-10-26T07:19:15.046Z,100.00
2022-10-26T07:20:13.698Z,100.00
2022-10-26T07:21:10.550Z,100.00
2022-10-26T07:22:07.721Z,100.00
2022-10-26T07:23:07.110Z,100.00
2022-10-26T07:24:04.144Z,100.00
2022-10-26T07:25:03.139Z,100.00
2022-10-26T07:26:00.663Z,100.00
2022-10-26T07:26:58.797Z,100.00
2022-10-26T07:28:00.259Z,100.00
2022-10-26T07:28:57.395Z,100.00
2022-10-26T07:29:54.121Z,100.00
2022-10-26T07:30:55.278Z,100.00
2022-10-26T07:32:51.509Z,100.00
2022-10-26T07:33:48.401Z,100.00
2022-10-26T07:34:45.163Z,100.00
2022-10-26T07:35:42.078Z,100.00
2022-10-26T07:36:39.486Z,100.00
2022-10-26T07:37:36.299Z,100.00
2022-10-26T07:38:33.023Z,100.00
2022-10-26T07:39:32.734Z,100.00
2022-10-26T07:40:29.545Z,100.00
2022-10-26T07:41:26.232Z,100.00
2022-10-26T07:42:23.486Z,100.00
2022-10-26T07:43:22.482Z,100.00
2022-10-26T07:44:19.303Z,100.00
2022-10-26T07:45:16.116Z,100.00
2022-10-26T07:46:13.190Z,100.00
2022-10-26T07:47:10.031Z,100.00
2022-10-26T07:48:06.908Z,100.00
2022-10-26T07:49:03.618Z,100.00
2022-10-26T07:50:00.350Z,100.00
2022-10-26T07:50:57.044Z,100.00
2022-10-26T07:51:53.846Z,100.00
2022-10-26T07:52:51.336Z,100.00
2022-10-26T07:53:48.277Z,100.00
2022-10-26T07:54:44.995Z,100.00
2022-10-26T07:55:41.726Z,100.00
2022-10-26T07:56:38.469Z,100.00
2022-10-26T07:57:35.266Z,100.00
2022-10-26T07:58:32.032Z,100.00
2022-10-26T07:59:28.857Z,100.00
2022-10-26T08:00:25.926Z,100.00
2022-10-26T08:01:22.935Z,100.00
2022-10-26T08:02:19.794Z,100.00
2022-10-26T08:03:17.920Z,100.00
2022-10-26T08:04:15.643Z,100.00
2022-10-26T08:05:12.326Z,100.00
2022-10-26T08:06:10.565Z,100.00
2022-10-26T08:07:07.286Z,100.00
2022-10-26T08:08:04.131Z,100.00
2022-10-26T08:09:00.861Z,100.00
2022-10-26T08:09:57.728Z,100.00
2022-10-26T08:10:54.503Z,100.00
2022-10-26T08:11:51.478Z,100.00
2022-10-26T08:12:48.173Z,100.00
2022-10-26T08:13:45.008Z,100.00
2022-10-26T08:14:42.537Z,100.00
2022-10-26T08:15:39.599Z,100.00
2022-10-26T08:16:40.247Z,100.00
2022-10-26T08:17:36.981Z,100.00
2022-10-26T08:18:33.826Z,100.00
2022-10-26T08:19:30.525Z,100.00
2022-10-26T08:20:45.879Z,100.00
2022-10-26T08:21:42.658Z,100.00
2022-10-26T08:22:39.410Z,100.00
2022-10-26T08:23:36.093Z,100.00
2022-10-26T08:24:32.916Z,100.00
2022-10-26T08:25:29.807Z,100.00
2022-10-26T08:26:26.487Z,100.00
2022-10-26T08:27:23.222Z,100.00
2022-10-26T08:28:19.945Z,100.00
2022-10-26T08:29:16.656Z,100.00
2022-10-26T08:30:13.499Z,100.00
2022-10-26T08:31:10.191Z,100.00
2022-10-26T08:32:07.305Z,100.00
2022-10-26T08:33:07.031Z,100.00
2022-10-26T08:34:04.473Z,100.00
2022-10-26T08:35:01.181Z,100.00
2022-10-26T08:36:04.851Z,100.00
2022-10-26T08:37:01.624Z,100.00
2022-10-26T08:37:59.084Z,100.00
2022-10-26T08:38:55.935Z,100.00
2022-10-26T08:39:55.244Z,100.00
2022-10-26T08:40:56.710Z,100.00
2022-10-26T08:42:04.254Z,100.00
2022-10-26T08:43:19.681Z,100.00
2022-10-26T08:44:26.003Z,100.00
2022-10-26T08:45:36.886Z,100.00
2022-10-26T08:46:42.477Z,100.00
2022-10-26T08:47:50.391Z,100.00
2022-10-26T08:49:19.320Z,100.00
2022-10-26T08:50:25.130Z,100.00
2022-10-26T08:51:37.523Z,100.00
2022-10-26T08:52:47.416Z,100.00
2022-10-26T08:54:14.228Z,100.00
2022-10-26T08:55:23.685Z,100.00
2022-10-26T08:56:26.045Z,100.00
2022-10-26T08:57:32.064Z,100.00
2022-10-26T08:58:37.911Z,100.00
2022-10-26T08:59:48.138Z,97.72
2022-10-26T09:00:50.098Z,97.37
2022-10-26T09:01:46.950Z,96.64
2022-10-26T09:02:43.726Z,96.71
2022-10-26T09:03:40.445Z,96.17
2022-10-26T09:04:37.207Z,94.81
2022-10-26T09:06:16.026Z,94.05
2022-10-26T09:07:37.373Z,94.17
2022-10-26T09:08:53.402Z,94.68
2022-10-26T09:10:17.296Z,95.44
2022-10-26T09:11:25.489Z,94.71
2022-10-26T09:12:58.285Z,94.03
2022-10-26T09:14:16.946Z,93.35
2022-10-26T09:15:31.834Z,91.96
2022-10-26T09:16:41.364Z,91.57
2022-10-26T09:17:50.854Z,90.91
2022-10-26T09:19:06.154Z,89.53
2022-10-26T09:20:26.845Z,89.59
2022-10-26T09:21:43.407Z,88.73
2022-10-26T09:22:57.830Z,88.19
2022-10-26T09:24:06.247Z,87.86
2022-10-26T09:25:18.540Z,87.14
2022-10-26T09:26:28.730Z,87.07
2022-10-26T09:27:29.491Z,87.03
2022-10-26T09:28:34.545Z,86.09
2022-10-26T09:29:43.426Z,85.06
2022-10-26T09:30:40.314Z,84.90
2022-10-26T09:31:47.115Z,84.17
2022-10-26T09:32:59.846Z,84.83
2022-10-26T09:34:02.282Z,85.05
2022-10-26T09:35:05.734Z,84.59
2022-10-26T09:36:17.989Z,84.10
2022-10-26T09:37:28.622Z,84.04
2022-10-26T09:38:43.560Z,83.24
2022-10-26T09:39:58.836Z,83.15
2022-10-26T09:41:17.390Z,82.77
2022-10-26T09:42:49.761Z,82.37
2022-10-26T09:44:01.510Z,81.35
2022-10-26T09:45:13.582Z,80.52
2022-10-26T09:46:20.930Z,78.74
2022-10-26T09:47:30.863Z,79.21
2022-10-26T09:48:36.854Z,78.42
2022-10-26T09:49:52.343Z,78.78
2022-10-26T09:50:51.361Z,78.94
2022-10-26T09:51:49.116Z,79.06
2022-10-26T09:52:46.024Z,78.68
2022-10-26T09:53:42.899Z,79.05
2022-10-26T09:54:39.646Z,78.20
2022-10-26T09:55:43.998Z,78.17
2022-10-26T09:56:44.879Z,77.12
2022-10-26T09:57:53.567Z,78.13
2022-10-26T09:59:12.263Z,78.40
2022-10-26T10:00:17.158Z,78.04
2022-10-26T10:01:35.594Z,77.37
2022-10-26T10:02:35.238Z,77.98
2022-10-26T10:03:32.867Z,77.74
2022-10-26T10:04:33.751Z,76.74
2022-10-26T10:05:50.719Z,76.29
2022-10-26T10:07:08.533Z,74.81
2022-10-26T10:08:16.441Z,75.09
2022-10-26T10:09:21.172Z,75.24
2022-10-26T10:10:23.906Z,74.88
2022-10-26T10:11:20.618Z,75.56
2022-10-26T10:12:21.394Z,74.86
2022-10-26T10:13:23.259Z,74.92
2022-10-26T10:14:20.372Z,73.74
2022-10-26T10:15:23.538Z,72.58
2022-10-26T10:16:25.150Z,72.16
2022-10-26T10:17:23.975Z,71.46
2022-10-26T10:18:23.699Z,72.17
2022-10-26T10:19:28.425Z,72.43
2022-10-26T10:20:32.638Z,71.95
2022-10-26T10:21:36.579Z,70.88
2022-10-26T10:22:33.333Z,70.84
2022-10-26T10:23:32.701Z,70.92
2022-10-26T10:24:36.929Z,70.08
2022-10-26T10:25:39.969Z,70.51
2022-10-26T10:26:57.302Z,69.08
2022-10-26T10:27:54.601Z,69.46
2022-10-26T10:29:00.146Z,69.37
2022-10-26T10:30:03.042Z,67.92
2022-10-26T10:31:18.029Z,68.47
2022-10-26T10:32:20.899Z,67.94
2022-10-26T10:33:17.586Z,67.73
2022-10-26T10:34:17.731Z,67.78
2022-10-26T10:35:29.611Z,68.21
2022-10-26T10:36:30.235Z,67.43
2022-10-26T10:37:44.323Z,66.94
2022-10-26T10:38:44.695Z,66.65
2022-10-26T10:39:42.939Z,66.24
2022-10-26T10:40:39.705Z,66.64
2022-10-26T10:41:37.252Z,66.05
2022-10-26T10:42:39.522Z,66.76
2022-10-26T10:43:36.487Z,66.89
2022-10-26T10:44:34.867Z,66.19
2022-10-26T10:45:33.262Z,64.62
2022-10-26T10:46:29.963Z,64.02
2022-10-26T10:47:37.804Z,64.49
2022-10-26T10:48:37.202Z,64.26
2022-10-26T10:49:36.228Z,63.75
2022-10-26T10:50:36.462Z,63.74
2022-10-26T10:51:40.326Z,63.07
2022-10-26T10:52:37.070Z,63.55
2022-10-26T10:53:36.850Z,63.08
2022-10-26T10:54:39.039Z,62.61
2022-10-26T10:55:36.072Z,62.18
2022-10-26T10:56:38.295Z,62.27
2022-10-26T10:57:43.847Z,62.03
2022-10-26T10:58:52.639Z,60.92
2022-10-26T11:00:00.259Z,61.15
2022-10-26T11:00:57.776Z,60.67
2022-10-26T11:02:06.783Z,61.34
2022-10-26T11:03:24.979Z,60.96
2022-10-26T11:04:50.125Z,60.95
2022-10-26T11:06:09.469Z,59.80
2022-10-26T11:07:10.035Z,59.59
2022-10-26T11:08:35.371Z,59.52
2022-10-26T11:09:36.611Z,59.79
2022-10-26T11:10:40.072Z,58.92
2022-10-26T11:12:02.747Z,58.77
2022-10-26T11:13:06.811Z,58.26
2022-10-26T11:14:25.458Z,58.31
2022-10-26T11:15:28.283Z,57.05
2022-10-26T11:16:33.385Z,57.50
2022-10-26T11:17:45.784Z,56.84
2022-10-26T11:18:58.259Z,56.96
2022-10-26T11:19:58.814Z,56.46
2022-10-26T11:21:05.296Z,56.06
2022-10-26T11:22:11.122Z,56.15
2022-10-26T11:23:33.646Z,55.60
2022-10-26T11:24:35.683Z,55.18
2022-10-26T11:25:47.499Z,54.48
2022-10-26T11:27:04.370Z,53.80
2022-10-26T11:28:15.057Z,54.29
2022-10-26T11:29:39.339Z,54.54
2022-10-26T11:30:47.055Z,54.16
2022-10-26T11:31:51.908Z,54.25
2022-10-26T11:33:00.601Z,54.01
2022-10-26T11:34:13.042Z,52.34
2022-10-26T11:35:28.033Z,51.76
2022-10-26T11:36:30.388Z,51.02
2022-10-26T11:37:44.681Z,51.42
2022-10-26T11:39:10.917Z,52.85
2022-10-26T11:40:16.760Z,51.48
2022-10-26T11:41:29.562Z,52.18
2022-10-26T11:42:48.456Z,51.63
2022-10-26T11:43:48.755Z,51.51
2022-10-26T11:45:17.265Z,51.20
2022-10-26T11:46:24.261Z,51.89
2022-10-26T11:47:42.822Z,50.71
2022-10-26T11:49:04.875Z,50.17
2022-10-26T11:50:17.450Z,49.51
2022-10-26T11:51:22.800Z,50.20
2022-10-26T11:52:22.671Z,50.35
2022-10-26T11:53:25.391Z,50.47
2022-10-26T11:54:41.493Z,49.74
2022-10-26T11:55:41.019Z,48.75
2022-10-26T11:56:46.356Z,49.34
2022-10-26T11:57:48.296Z,49.10
2022-10-26T11:58:46.387Z,49.60
2022-10-26T11:59:55.063Z,49.33
2022-10-26T12:01:03.718Z,49.69
2022-10-26T12:02:25.027Z,48.36
2022-10-26T12:03:33.601Z,47.40
2022-10-26T12:04:35.772Z,47.20
2022-10-26T12:05:32.406Z,46.93
2022-10-26T12:06:33.343Z,48.03
2022-10-26T12:07:33.787Z,48.02
2022-10-26T12:08:44.000Z,47.66
2022-10-26T12:09:45.072Z,47.75
2022-10-26T12:10:49.182Z,47.64
2022-10-26T12:11:58.592Z,47.76
2022-10-26T12:13:10.196Z,47.38
2022-10-26T12:14:19.168Z,47.40
2022-10-26T12:15:40.315Z,46.82
2022-10-26T12:17:12.602Z,46.58
2022-10-26T12:18:13.810Z,46.47
2022-10-26T12:19:20.332Z,46.51
2022-10-26T12:20:36.926Z,47.05
2022-10-26T12:21:34.912Z,47.05
2022-10-26T12:22:40.115Z,46.70
2022-10-26T12:23:51.210Z,46.08
2022-10-26T12:25:13.878Z,46.52
2022-10-26T12:26:23.321Z,45.99
2022-10-26T12:29:01.926Z,46.04
2022-10-26T12:30:17.289Z,46.20
2022-10-26T12:31:32.266Z,46.01
2022-10-26T12:32:31.774Z,46.15
2022-10-26T12:33:30.521Z,45.37
2022-10-26T12:34:30.231Z,46.21
2022-10-26T12:35:34.832Z,45.16
2022-10-26T12:36:47.320Z,45.26
2022-10-26T12:37:44.055Z,44.42
2022-10-26T12:38:40.792Z,44.93
2022-10-26T12:39:42.702Z,43.96
2022-10-26T12:40:41.864Z,43.79
2022-10-26T12:41:39.305Z,43.83
2022-10-26T12:42:41.843Z,43.30
2022-10-26T12:43:41.031Z,43.56
2022-10-26T12:44:42.162Z,42.96
2022-10-26T12:45:39.335Z,43.30
2022-10-26T12:46:40.552Z,43.57
2022-10-26T12:47:37.193Z,43.03
2022-10-26T12:48:43.805Z,43.11
2022-10-26T12:50:02.226Z,42.99
2022-10-26T12:51:21.771Z,42.61
2022-10-26T12:52:27.683Z,42.02
2022-10-26T12:53:26.319Z,42.64
2022-10-26T12:54:45.982Z,42.47
2022-10-26T12:55:45.709Z,41.76
2022-10-26T12:57:29.816Z,42.03
2022-10-26T12:58:53.304Z,42.04
2022-10-26T13:00:05.137Z,41.06
2022-10-26T13:01:01.762Z,41.71
2022-10-26T13:02:25.914Z,41.59
2022-10-26T13:03:28.430Z,41.20
2022-10-26T13:04:44.501Z,41.61
2022-10-26T13:05:59.932Z,40.76
2022-10-26T13:07:17.401Z,40.48
2022-10-26T13:08:16.124Z,40.67
2022-10-26T13:09:29.167Z,40.58
2022-10-26T13:10:27.022Z,39.67
2022-10-26T13:11:55.382Z,39.82
2022-10-26T13:13:00.612Z,39.31
2022-10-26T13:14:08.221Z,40.44
2022-10-26T13:15:19.541Z,40.11
2022-10-26T13:16:17.187Z,38.89